Time;durP1;ratioP1;P1;durP2;ratioP2;P2;SDS_P1;SDS_P2;PMS_P1;PMS_P2;Temp;Humidity;BMP_temperature;BMP_pressure;BME280_temperature;BME280_humidity;BME280_pressure;Samples;Min_cycle;Max_cycle;Signal;HPM_P1;HPM_P2
2023/07/08 00:00:11;;;;;;;;;;;;;;;23.01;50.77;101834.09;5052715;28;19968;-74
2023/07/08 00:02:36;;;;;;;;;;;;;;;23.01;50.56;101838.69;5048211;28;19917;-74
2023/07/08 00:05:01;;;;;;;;;;;;;;;23.01;50.65;101835.97;5051957;28;19932;-74
2023/07/08 00:07:26;;;;;;;;;;;;;;;23.01;50.76;101838.69;5052688;28;19914;-74
2023/07/08 00:09:51;;;;;;;;;;;;;;;23.00;50.68;101826.16;5050310;28;19923;-74
2023/07/08 00:12:17;;;;;;;;;;;;;;;22.99;50.38;101827.19;5051096;28;19919;-74
2023/07/08 00:14:42;;;;;;;;;;;;;;;22.99;50.38;101819.03;5051336;28;19917;-74
2023/07/08 00:17:12;;;;;;;;;;;;;;;22.99;50.50;101813.63;5047588;28;19921;-74
2023/07/08 00:19:37;;;;;;;;;;;;;;;22.98;50.59;101820.91;5050437;28;19925;-74
2023/07/08 00:22:07;;;;;;;;;;;;;;;22.98;50.54;101826.34;5050199;28;19913;-74
2023/07/08 00:24:32;;;;;;;;;;;;;;;22.97;50.25;101813.78;5049148;28;20441;-74
2023/07/08 00:26:57;;;;;;;;;;;;;;;22.97;50.32;101824.63;5052455;28;19924;-74
2023/07/08 00:29:23;;;;;;;;;;;;;;;22.97;50.35;101813.78;5051057;28;19924;-73
2023/07/08 00:31:48;;;;;;;;;;;;;;;22.96;50.20;101812.09;5052596;28;19924;-74
2023/07/08 00:34:15;;;;;;;;;;;;;;;22.95;50.27;101811.25;5052269;28;19913;-74
2023/07/08 00:36:40;;;;;;;;;;;;;;;22.96;50.48;101806.66;5048845;28;19913;-73
2023/07/08 00:39:09;;;;;;;;;;;;;;;22.95;50.21;101810.41;5032536;28;20356;-74
2023/07/08 00:41:41;;;;;;;;;;;;;;;22.95;50.23;101810.41;5047628;28;19913;-73
2023/07/08 00:44:07;;;;;;;;;;;;;;;22.94;50.38;101803.28;5079610;28;19947;-73
2023/07/08 00:46:42;;;;;;;;;;;;;;;22.93;50.07;101804.28;5049954;28;19913;-74
2023/07/08 00:49:07;;;;;;;;;;;;;;;22.94;50.43;101797.88;5048067;28;19916;-74
2023/07/08 00:51:33;;;;;;;;;;;;;;;22.92;50.42;101800.72;5049818;28;20016;-73
2023/07/08 00:53:58;;;;;;;;;;;;;;;22.92;50.12;101794.47;5051884;28;19960;-74
2023/07/08 00:56:23;;;;;;;;;;;;;;;22.91;50.14;101793.63;5081390;28;19956;-73
2023/07/08 00:58:49;;;;;;;;;;;;;;;22.92;50.04;101791.75;5050686;28;19966;-73
2023/07/08 01:01:15;;;;;;;;;;;;;;;22.91;50.32;101790.91;5050469;28;19920;-72
2023/07/08 01:03:49;;;;;;;;;;;;;;;22.91;50.18;101790.91;5051282;28;19913;-73
2023/07/08 01:06:15;;;;;;;;;;;;;;;22.91;50.18;101779.22;5031866;28;20012;-74
2023/07/08 01:08:40;;;;;;;;;;;;;;;22.90;50.18;101780.25;5055159;28;19913;-74
2023/07/08 01:11:06;;;;;;;;;;;;;;;22.89;50.18;101773.91;5050241;28;20293;-74
2023/07/08 01:13:33;;;;;;;;;;;;;;;22.90;50.24;101780.25;5088543;28;19944;-73
2023/07/08 01:15:58;;;;;;;;;;;;;;;22.89;50.13;101779.34;5051787;28;20266;-73
2023/07/08 01:18:24;;;;;;;;;;;;;;;22.89;50.12;101775.78;5086026;28;20439;-74
2023/07/08 01:20:50;;;;;;;;;;;;;;;22.88;50.27;101774.09;5040132;28;19917;-73
2023/07/08 01:23:15;;;;;;;;;;;;;;;22.88;50.27;101777.66;5051148;28;20013;-74
2023/07/08 01:25:41;;;;;;;;;;;;;;;22.87;50.38;101781.41;5053129;28;19963;-74
2023/07/08 01:28:06;;;;;;;;;;;;;;;22.87;50.13;101775.13;5056093;28;19988;-75
2023/07/08 01:30:31;;;;;;;;;;;;;;;22.86;50.22;101777.00;5051183;28;19913;-75
2023/07/08 01:32:57;;;;;;;;;;;;;;;22.86;50.24;101776.16;5035791;28;19917;-73
2023/07/08 01:35:23;;;;;;;;;;;;;;;22.86;49.97;101774.28;5055533;28;19992;-73
2023/07/08 01:37:56;;;;;;;;;;;;;;;22.86;50.09;101773.44;5051692;28;19913;-73
2023/07/08 01:40:21;;;;;;;;;;;;;;;22.86;50.22;101774.28;5052702;28;20250;-71
2023/07/08 01:42:46;;;;;;;;;;;;;;;22.85;50.14;101780.75;5055297;28;19918;-73
2023/07/08 01:45:12;;;;;;;;;;;;;;;22.85;50.08;101771.75;5050295;28;19986;-73
2023/07/08 01:47:37;;;;;;;;;;;;;;;22.85;50.11;101769.03;5072461;28;19912;-73
2023/07/08 01:50:03;;;;;;;;;;;;;;;22.84;50.36;101761.91;5049300;28;19913;-73
2023/07/08 01:52:28;;;;;;;;;;;;;;;22.84;50.16;101759.22;5056418;28;19916;-73
2023/07/08 01:54:56;;;;;;;;;;;;;;;22.84;50.13;101756.50;5038644;28;19917;-73
2023/07/08 01:57:21;;;;;;;;;;;;;;;22.83;50.06;101746.69;5051537;28;20336;-73
2023/07/08 01:59:47;;;;;;;;;;;;;;;22.82;50.04;101748.53;5052015;28;19919;-73
2023/07/08 02:02:12;;;;;;;;;;;;;;;22.82;50.24;101736.84;5085699;28;20362;-73
2023/07/08 02:04:37;;;;;;;;;;;;;;;22.82;50.13;101737.69;5054976;28;19913;-73
2023/07/08 02:07:04;;;;;;;;;;;;;;;22.81;49.89;101736.03;5052730;28;19924;-73
2023/07/08 02:09:30;;;;;;;;;;;;;;;22.81;50.26;101730.59;5053706;28;20007;-74
2023/07/08 02:11:55;;;;;;;;;;;;;;;22.81;50.10;101725.19;5050381;28;20460;-74
2023/07/08 02:14:20;;;;;;;;;;;;;;;22.81;49.99;101729.72;5053419;28;20366;-73
2023/07/08 02:16:46;;;;;;;;;;;;;;;22.79;50.01;101719.06;5085051;28;19925;-73
2023/07/08 02:19:11;;;;;;;;;;;;;;;22.80;50.13;101719.91;5053079;28;19979;-73
2023/07/08 02:21:37;;;;;;;;;;;;;;;22.80;49.94;101730.75;5069788;28;19915;-73
2023/07/08 02:24:02;;;;;;;;;;;;;;;22.80;50.24;101736.16;5085940;28;19913;-74
2023/07/08 02:26:27;;;;;;;;;;;;;;;22.80;49.95;101736.16;5053085;28;19924;-74
2023/07/08 02:28:53;;;;;;;;;;;;;;;22.79;50.18;101734.50;5055659;28;19959;-74
2023/07/08 02:31:18;;;;;;;;;;;;;;;22.78;50.18;101733.66;5054014;28;20016;-74
2023/07/08 02:33:43;;;;;;;;;;;;;;;22.78;50.19;101728.22;5084938;28;19993;-74
2023/07/08 02:36:08;;;;;;;;;;;;;;;22.78;50.16;101724.66;5086499;28;20035;-73
2023/07/08 02:38:33;;;;;;;;;;;;;;;22.77;49.82;101718.41;5050449;28;20301;-74
2023/07/08 02:40:59;;;;;;;;;;;;;;;22.77;50.08;101715.69;5050580;28;20223;-74
2023/07/08 02:43:24;;;;;;;;;;;;;;;22.76;49.80;101716.69;5054350;28;19925;-74
2023/07/08 02:45:50;;;;;;;;;;;;;;;22.77;49.88;101712.13;5067481;28;19913;-74
2023/07/08 02:48:16;;;;;;;;;;;;;;;22.77;49.89;101709.41;5054153;28;19923;-74
2023/07/08 02:50:41;;;;;;;;;;;;;;;22.76;50.02;101703.13;5068875;28;19917;-74
2023/07/08 02:53:07;;;;;;;;;;;;;;;22.75;49.88;101701.44;5053968;28;19945;-73
2023/07/08 02:55:32;;;;;;;;;;;;;;;22.76;49.86;101696.88;5053970;28;20012;-73
2023/07/08 02:57:57;;;;;;;;;;;;;;;22.75;49.96;101709.59;5052983;28;19977;-74
2023/07/08 03:00:22;;;;;;;;;;;;;;;22.75;49.96;101706.88;5051089;28;19922;-74
2023/07/08 03:02:47;;;;;;;;;;;;;;;22.75;49.75;101706.03;5055224;28;19920;-74
2023/07/08 03:05:13;;;;;;;;;;;;;;;22.73;49.74;101698.09;5051375;28;19921;-74
2023/07/08 03:07:38;;;;;;;;;;;;;;;22.74;50.10;101701.63;5049892;28;20119;-74
2023/07/08 03:10:03;;;;;;;;;;;;;;;22.74;50.12;101699.78;5050847;28;20041;-74
2023/07/08 03:12:29;;;;;;;;;;;;;;;22.74;50.14;101697.06;5049079;28;19914;-74
2023/07/08 03:14:54;;;;;;;;;;;;;;;22.74;49.87;101693.50;5086815;28;19920;-73
2023/07/08 03:17:19;;;;;;;;;;;;;;;22.73;50.10;101684.53;5051670;28;19928;-73
2023/07/08 03:19:44;;;;;;;;;;;;;;;22.73;49.75;101686.41;5083188;28;19923;-73
2023/07/08 03:22:10;;;;;;;;;;;;;;;22.73;50.06;101692.66;5051970;28;19971;-73
2023/07/08 03:24:35;;;;;;;;;;;;;;;22.73;49.88;101689.13;5053954;28;19959;-74
2023/07/08 03:27:04;;;;;;;;;;;;;;;22.73;49.98;101694.53;5052224;28;19917;-74
2023/07/08 03:29:30;;;;;;;;;;;;;;;22.72;49.85;101696.38;5083430;28;20370;-74
2023/07/08 03:31:55;;;;;;;;;;;;;;;22.71;49.81;101698.25;5050801;28;19924;-74
2023/07/08 03:34:20;;;;;;;;;;;;;;;22.71;49.58;101700.94;5031994;28;19913;-74
2023/07/08 03:36:48;;;;;;;;;;;;;;;22.71;49.57;101703.66;5055647;28;19991;-74
2023/07/08 03:39:14;;;;;;;;;;;;;;;22.71;49.79;101697.41;5048066;28;19928;-74
2023/07/08 03:41:39;;;;;;;;;;;;;;;22.70;49.83;101693.84;5049381;28;19917;-75
2023/07/08 03:44:04;;;;;;;;;;;;;;;22.71;49.81;101702.81;5053066;28;19913;-74
2023/07/08 03:46:29;;;;;;;;;;;;;;;22.70;49.58;101704.69;5052222;28;19921;-74
2023/07/08 03:48:55;;;;;;;;;;;;;;;22.70;49.80;101704.69;5053463;28;19916;-74
2023/07/08 03:51:21;;;;;;;;;;;;;;;22.70;49.90;101703.84;5052179;28;19920;-74
2023/07/08 03:53:47;;;;;;;;;;;;;;;22.71;49.80;101705.53;5052292;28;19913;-73
2023/07/08 03:56:13;;;;;;;;;;;;;;;22.70;49.79;101699.25;5050405;28;20492;-74
2023/07/08 03:58:38;;;;;;;;;;;;;;;22.70;49.46;101703.84;5085405;28;19987;-73
2023/07/08 04:01:03;;;;;;;;;;;;;;;22.70;49.95;101701.13;5080727;28;19940;-74
2023/07/08 04:03:29;;;;;;;;;;;;;;;22.69;49.67;101713.00;5053474;28;19979;-74
2023/07/08 04:05:55;;;;;;;;;;;;;;;22.68;49.61;101709.47;5047734;28;19958;-74
2023/07/08 04:08:20;;;;;;;;;;;;;;;22.70;49.60;101711.97;5048646;28;19913;-74
2023/07/08 04:10:45;;;;;;;;;;;;;;;22.68;49.86;101709.47;5086954;28;19948;-75
2023/07/08 04:13:10;;;;;;;;;;;;;;;22.69;49.80;101710.28;5049498;28;19917;-75
2023/07/08 04:15:35;;;;;;;;;;;;;;;22.68;49.44;101712.16;5054280;28;19936;-74
2023/07/08 04:18:01;;;;;;;;;;;;;;;22.69;49.86;101710.28;5068755;28;19929;-74
2023/07/08 04:20:26;;;;;;;;;;;;;;;22.68;49.77;101719.44;5051710;28;19917;-74
2023/07/08 04:22:51;;;;;;;;;;;;;;;22.67;49.51;101713.16;5083297;28;19924;-74
2023/07/08 04:25:17;;;;;;;;;;;;;;;22.68;49.70;101717.59;5052947;28;19944;-75
2023/07/08 04:27:43;;;;;;;;;;;;;;;22.67;49.71;101721.28;5049677;28;20353;-75
2023/07/08 04:30:09;;;;;;;;;;;;;;;22.67;49.56;101715.03;5049874;28;19917;-74
2023/07/08 04:32:37;;;;;;;;;;;;;;;22.67;49.90;101729.44;5044371;28;19971;-74
2023/07/08 04:35:03;;;;;;;;;;;;;;;22.67;49.46;101729.44;5049926;28;20028;-74
2023/07/08 04:37:28;;;;;;;;;;;;;;;22.68;49.59;101732.97;5051823;28;19914;-74
2023/07/08 04:39:53;;;;;;;;;;;;;;;22.67;49.75;101723.16;5047872;28;19991;-74
2023/07/08 04:42:18;;;;;;;;;;;;;;;22.66;49.57;101722.31;5051169;28;19917;-75
2023/07/08 04:44:44;;;;;;;;;;;;;;;22.66;49.38;101725.03;5051713;28;19983;-76
2023/07/08 04:47:12;;;;;;;;;;;;;;;22.65;49.40;101717.94;5049898;28;19913;-72
2023/07/08 04:49:37;;;;;;;;;;;;;;;21.96;49.70;101603.78;5082681;28;19913;-72
2023/07/08 04:52:02;;;;;;;;;;;;;;;22.65;49.59;101719.78;5051130;28;19920;-72
2023/07/08 04:54:28;;;;;;;;;;;;;;;22.65;49.71;101720.63;5082804;28;19920;-72
2023/07/08 04:56:53;;;;;;;;;;;;;;;22.66;49.77;101729.63;5083657;28;19917;-73
2023/07/08 04:59:21;;;;;;;;;;;;;;;22.65;49.86;101728.78;5052605;28;19945;-72
2023/07/08 05:01:46;;;;;;;;;;;;;;;22.65;49.98;101722.50;5046912;28;19976;-73
2023/07/08 05:04:15;;;;;;;;;;;;;;;22.64;49.97;101727.09;5050008;28;19963;-71
2023/07/08 05:06:40;;;;;;;;;;;;;;;22.64;49.76;101721.66;5059743;28;19971;-73
2023/07/08 05:09:06;;;;;;;;;;;;;;;22.64;50.21;101721.66;5050880;28;19921;-71
2023/07/08 05:11:31;;;;;;;;;;;;;;;22.64;49.90;101718.94;5049512;28;19963;-73
2023/07/08 05:13:56;;;;;;;;;;;;;;;22.62;50.16;101712.84;5082039;28;20305;-71
2023/07/08 05:16:22;;;;;;;;;;;;;;;22.64;50.15;101716.25;5048801;28;19916;-72
2023/07/08 05:18:47;;;;;;;;;;;;;;;22.64;50.15;101723.50;5049474;28;20531;-72
2023/07/08 05:21:12;;;;;;;;;;;;;;;22.64;50.10;101721.66;5046055;28;19927;-73
2023/07/08 05:23:38;;;;;;;;;;;;;;;22.64;50.11;101718.09;5049438;28;19960;-73
2023/07/08 05:26:04;;;;;;;;;;;;;;;22.63;50.19;101713.69;5084280;28;19921;-74
2023/07/08 05:28:29;;;;;;;;;;;;;;;22.63;50.12;101717.25;5080800;28;19947;-72
2023/07/08 05:30:57;;;;;;;;;;;;;;;22.63;50.21;101710.97;5049704;28;19917;-72
2023/07/08 05:33:23;;;;;;;;;;;;;;;22.63;50.19;101708.25;5063696;28;19913;-72
2023/07/08 05:35:49;;;;;;;;;;;;;;;22.62;50.15;101707.41;5047356;28;19914;-73
2023/07/08 05:38:14;;;;;;;;;;;;;;;22.63;50.42;101711.81;5050635;28;19980;-72
2023/07/08 05:40:39;;;;;;;;;;;;;;;22.62;50.30;101712.84;5082881;28;19972;-72
2023/07/08 05:43:04;;;;;;;;;;;;;;;22.64;50.59;101709.94;5051574;28;20072;-74
2023/07/08 05:45:30;;;;;;;;;;;;;;;22.64;50.39;101704.53;5050285;28;20009;-73
2023/07/08 05:47:55;;;;;;;;;;;;;;;22.63;50.36;101708.25;5052309;28;19996;-73
2023/07/08 05:50:20;;;;;;;;;;;;;;;22.63;50.42;101710.97;5050091;28;19956;-73
2023/07/08 05:52:46;;;;;;;;;;;;;;;22.64;50.33;101709.94;5050291;28;20012;-73
2023/07/08 05:55:11;;;;;;;;;;;;;;;22.64;50.55;101718.09;5047023;28;19917;-73
2023/07/08 05:57:36;;;;;;;;;;;;;;;22.63;50.46;101702.84;5052538;28;19913;-73
2023/07/08 06:00:01;;;;;;;;;;;;;;;22.64;50.41;101707.25;5051211;28;19925;-72
2023/07/08 06:02:27;;;;;;;;;;;;;;;22.64;50.57;101702.69;5049626;28;19920;-72
2023/07/08 06:04:52;;;;;;;;;;;;;;;22.64;50.71;101701.81;5055821;28;19935;-72
2023/07/08 06:07:17;;;;;;;;;;;;;;;22.64;50.30;101710.81;5053286;28;20389;-74
2023/07/08 06:09:43;;;;;;;;;;;;;;;22.65;50.51;101708.97;5055362;28;19999;-73
2023/07/08 06:12:08;;;;;;;;;;;;;;;22.64;50.39;101699.97;5087050;28;19920;-75
2023/07/08 06:14:33;;;;;;;;;;;;;;;22.64;50.32;101694.56;5087887;28;19913;-71
2023/07/08 06:16:58;;;;;;;;;;;;;;;22.64;50.36;101699.97;5052817;28;19944;-72
2023/07/08 06:19:24;;;;;;;;;;;;;;;22.66;50.46;101699.78;5054430;28;19917;-72
2023/07/08 06:21:49;;;;;;;;;;;;;;;22.65;50.53;101695.41;5068533;28;19913;-72
2023/07/08 06:24:14;;;;;;;;;;;;;;;22.64;50.42;101697.28;5051929;28;19968;-71
2023/07/08 06:26:40;;;;;;;;;;;;;;;22.65;50.53;101695.41;5057329;28;19913;-72
2023/07/08 06:29:05;;;;;;;;;;;;;;;22.65;50.84;101692.69;5048324;28;19920;-71
2023/07/08 06:31:30;;;;;;;;;;;;;;;22.65;50.50;101698.94;5052545;28;20011;-72
2023/07/08 06:33:55;;;;;;;;;;;;;;;22.66;50.69;101699.78;5053286;28;19913;-72
2023/07/08 06:36:21;;;;;;;;;;;;;;;22.65;50.60;101692.69;5051915;28;19920;-72
2023/07/08 06:38:46;;;;;;;;;;;;;;;22.65;50.66;101690.81;5055224;28;19940;-72
2023/07/08 06:41:11;;;;;;;;;;;;;;;22.65;50.58;101696.25;5051980;28;19917;-72
2023/07/08 06:43:36;;;;;;;;;;;;;;;22.65;50.61;101696.25;5053921;28;19913;-72
2023/07/08 06:46:01;;;;;;;;;;;;;;;22.66;50.61;101699.78;5052669;28;19913;-72
2023/07/08 06:48:27;;;;;;;;;;;;;;;22.66;50.76;101699.78;5053704;28;19913;-72
2023/07/08 06:50:52;;;;;;;;;;;;;;;22.65;50.65;101698.09;5051066;28;19935;-74
2023/07/08 06:53:17;;;;;;;;;;;;;;;22.66;50.42;101702.50;5054177;28;19913;-72
2023/07/08 06:55:45;;;;;;;;;;;;;;;22.65;50.35;101701.66;5050420;28;19913;-73
2023/07/08 06:58:11;;;;;;;;;;;;;;;22.65;50.21;101698.09;5053309;28;19966;-73
2023/07/08 07:00:36;;;;;;;;;;;;;;;22.65;50.51;101698.94;5049887;28;19929;-73
2023/07/08 07:03:01;;;;;;;;;;;;;;;22.65;50.27;101696.25;5049596;28;19916;-72
2023/07/08 07:05:26;;;;;;;;;;;;;;;22.65;50.35;101693.53;5053440;28;19913;-72
2023/07/08 07:07:52;;;;;;;;;;;;;;;22.65;50.15;101700.81;5085215;28;20051;-72
2023/07/08 07:10:18;;;;;;;;;;;;;;;22.65;50.25;101701.66;5053390;28;20016;-72
2023/07/08 07:12:43;;;;;;;;;;;;;;;22.66;50.48;101703.34;5084514;28;19963;-72
2023/07/08 07:15:08;;;;;;;;;;;;;;;22.66;50.42;101699.78;5069633;28;19913;-72
2023/07/08 07:17:35;;;;;;;;;;;;;;;22.65;50.26;101704.38;5052889;28;19924;-72
2023/07/08 07:20:00;;;;;;;;;;;;;;;22.66;50.09;101697.94;5054129;28;19920;-72
2023/07/08 07:22:25;;;;;;;;;;;;;;;22.66;50.16;101697.09;5049412;28;19957;-72
2023/07/08 07:24:51;;;;;;;;;;;;;;;22.66;50.35;101705.22;5083591;28;19917;-72
2023/07/08 07:27:16;;;;;;;;;;;;;;;22.66;50.34;101708.78;5084421;28;19920;-72
2023/07/08 07:29:42;;;;;;;;;;;;;;;22.67;50.45;101709.59;5081067;28;20271;-72
2023/07/08 07:32:08;;;;;;;;;;;;;;;22.67;50.40;101715.03;5086153;28;19913;-73
2023/07/08 07:34:33;;;;;;;;;;;;;;;22.66;50.22;101700.63;5052932;28;19920;-73
2023/07/08 07:36:58;;;;;;;;;;;;;;;22.67;50.44;101704.19;5051706;28;19917;-73
2023/07/08 07:39:23;;;;;;;;;;;;;;;22.67;50.19;101702.31;5051842;28;19917;-72
2023/07/08 07:41:48;;;;;;;;;;;;;;;22.67;50.10;101705.03;5053462;28;19968;-72
2023/07/08 07:44:14;;;;;;;;;;;;;;;22.67;50.28;101696.91;5049148;28;19948;-71
2023/07/08 07:46:39;;;;;;;;;;;;;;;22.68;50.26;101708.59;5033355;28;19966;-71
2023/07/08 07:49:04;;;;;;;;;;;;;;;22.68;50.26;101698.63;5052591;28;19927;-71
2023/07/08 07:51:29;;;;;;;;;;;;;;;22.68;50.02;101695.91;5048407;28;19924;-71
2023/07/08 07:53:54;;;;;;;;;;;;;;;22.69;50.39;101692.16;5054262;28;20011;-71
2023/07/08 07:56:20;;;;;;;;;;;;;;;22.70;50.20;101693.00;5045532;28;19952;-72
2023/07/08 07:58:45;;;;;;;;;;;;;;;22.70;50.55;101695.72;5053115;28;19921;-71
2023/07/08 08:01:13;;;;;;;;;;;;;;;22.70;50.35;101695.72;5053047;28;20274;-72
2023/07/08 08:03:38;;;;;;;;;;;;;;;22.70;50.50;101680.28;5082235;28;19936;-72
2023/07/08 08:06:03;;;;;;;;;;;;;;;22.71;50.16;101673.00;5083659;28;20445;-76
2023/07/08 08:08:28;;;;;;;;;;;;;;;22.71;50.37;101671.13;5052326;28;20442;-73
2023/07/08 08:10:53;;;;;;;;;;;;;;;22.71;50.53;101671.13;5052388;28;19916;-73
2023/07/08 08:13:19;;;;;;;;;;;;;;;22.72;50.45;101674.69;5051718;28;19920;-73
2023/07/08 08:15:44;;;;;;;;;;;;;;;22.72;50.53;101677.41;5054183;28;19917;-73
2023/07/08 08:18:09;;;;;;;;;;;;;;;22.71;50.41;101675.72;5047141;28;19928;-73
2023/07/08 08:20:34;;;;;;;;;;;;;;;22.72;50.32;101680.09;5050260;28;19931;-73
2023/07/08 08:23:00;;;;;;;;;;;;;;;22.73;50.41;101679.09;5048546;28;20008;-73
2023/07/08 08:25:25;;;;;;;;;;;;;;;22.73;50.29;101683.69;5050915;28;19921;-73
2023/07/08 08:27:52;;;;;;;;;;;;;;;22.73;50.60;101681.81;5052932;28;19912;-73
2023/07/08 08:30:17;;;;;;;;;;;;;;;22.73;50.56;101683.69;5049197;28;19924;-73
2023/07/08 08:32:42;;;;;;;;;;;;;;;22.73;50.31;101679.09;5053558;28;19964;-73
2023/07/08 08:35:08;;;;;;;;;;;;;;;22.73;50.62;101670.13;5051027;28;19913;-73
2023/07/08 08:37:33;;;;;;;;;;;;;;;22.74;50.41;101677.25;5066590;28;19945;-73
2023/07/08 08:39:58;;;;;;;;;;;;;;;22.75;50.55;101670.78;5082342;28;19917;-72
2023/07/08 08:42:23;;;;;;;;;;;;;;;22.74;50.48;101672.66;5051405;28;19967;-72
2023/07/08 08:44:48;;;;;;;;;;;;;;;22.75;50.39;101666.22;5051511;28;19959;-73
2023/07/08 08:47:14;;;;;;;;;;;;;;;22.75;50.08;101666.22;5048753;28;20666;-73
2023/07/08 08:49:41;;;;;;;;;;;;;;;22.77;50.26;101675.03;5047731;28;19967;-73
2023/07/08 08:52:06;;;;;;;;;;;;;;;22.77;50.21;101675.03;5047986;28;19924;-73
2023/07/08 08:54:31;;;;;;;;;;;;;;;22.78;50.01;101670.44;5086168;28;19913;-73
2023/07/08 08:57:15;;;;;;;;;;;;;;;22.78;50.22;101674.00;5047418;28;19946;-73
2023/07/08 08:59:43;;;;;;;;;;;;;;;22.79;50.32;101674.84;5052530;28;19917;-73
2023/07/08 09:02:28;;;;;;;;;;;;;;;22.79;50.34;101664.84;5050454;28;19913;-73
2023/07/08 09:04:54;;;;;;;;;;;;;;;22.80;50.36;101671.09;5055163;28;19920;-73
2023/07/08 09:07:20;;;;;;;;;;;;;;;22.81;50.45;101672.78;5050856;28;19913;-73
2023/07/08 09:09:45;;;;;;;;;;;;;;;22.80;50.07;101674.66;5049251;28;20330;-73
2023/07/08 09:12:12;;;;;;;;;;;;;;;22.82;49.98;101675.34;5050201;28;19972;-73
2023/07/08 09:14:38;;;;;;;;;;;;;;;22.84;50.36;101680.56;5051508;28;20137;-73
2023/07/08 09:17:22;;;;;;;;;;;;;;;22.83;50.15;101677.03;5047854;28;19932;-73
2023/07/08 09:19:48;;;;;;;;;;;;;;;22.85;50.29;101682.25;5079839;28;19925;-73
2023/07/08 09:22:14;;;;;;;;;;;;;;;22.85;50.17;101679.53;5053848;28;20011;-73
2023/07/08 09:24:43;;;;;;;;;;;;;;;22.85;50.12;101677.72;5064406;28;19913;-73
2023/07/08 09:27:08;;;;;;;;;;;;;;;22.86;50.03;101678.56;5049608;28;20349;-74
2023/07/08 09:29:34;;;;;;;;;;;;;;;22.86;50.44;101682.09;5053031;28;19920;-74
2023/07/08 09:32:00;;;;;;;;;;;;;;;22.86;50.19;101684.81;5087393;28;19916;-74
2023/07/08 09:34:36;;;;;;;;;;;;;;;22.86;50.34;101683.97;5069557;28;19913;-74
2023/07/08 09:37:01;;;;;;;;;;;;;;;22.85;50.27;101683.13;5054809;28;19921;-75
2023/07/08 09:39:26;;;;;;;;;;;;;;;22.85;50.29;101676.84;5054038;28;19966;-75
2023/07/08 09:41:52;;;;;;;;;;;;;;;22.85;50.36;101679.53;5087662;28;19967;-75
2023/07/08 09:44:17;;;;;;;;;;;;;;;22.84;50.16;101676.00;5051341;28;19909;-73
2023/07/08 09:46:42;;;;;;;;;;;;;;;22.84;50.31;101676.00;5048717;28;19917;-73
2023/07/08 09:49:18;;;;;;;;;;;;;;;22.84;50.48;101669.72;5050347;28;19948;-74
2023/07/08 09:51:44;;;;;;;;;;;;;;;22.84;50.50;101672.44;5049543;28;19941;-74
2023/07/08 09:54:09;;;;;;;;;;;;;;;22.84;50.37;101672.44;5053642;28;19917;-74
2023/07/08 09:56:34;;;;;;;;;;;;;;;22.84;50.41;101678.69;5054493;28;19948;-74
2023/07/08 09:58:59;;;;;;;;;;;;;;;22.84;50.42;101684.13;5054868;28;19917;-74
2023/07/08 10:01:25;;;;;;;;;;;;;;;22.84;50.60;101681.41;5056690;28;19917;-74
2023/07/08 10:03:50;;;;;;;;;;;;;;;22.84;50.67;101675.16;5084840;28;19921;-74
2023/07/08 10:06:23;;;;;;;;;;;;;;;22.85;50.39;101685.84;5055432;28;20374;-74
2023/07/08 10:08:48;;;;;;;;;;;;;;;22.85;50.75;101683.13;5087327;28;19968;-74
2023/07/08 10:11:17;;;;;;;;;;;;;;;22.85;50.46;101683.13;5086886;28;19917;-74
2023/07/08 10:13:43;;;;;;;;;;;;;;;22.85;50.65;101680.41;5050782;28;20012;-74
2023/07/08 10:16:11;;;;;;;;;;;;;;;22.86;50.59;101681.25;5088343;28;19943;-74
2023/07/08 10:18:36;;;;;;;;;;;;;;;22.86;50.73;101673.97;5049069;28;19928;-74
2023/07/08 10:21:20;;;;;;;;;;;;;;;22.86;50.63;101671.25;5053522;28;19921;-74
2023/07/08 10:24:04;;;;;;;;;;;;;;;22.87;50.70;101681.06;5049708;28;19919;-74
2023/07/08 10:26:34;;;;;;;;;;;;;;;22.87;50.66;101680.22;5054192;28;19959;-74
2023/07/08 10:29:14;;;;;;;;;;;;;;;22.88;50.65;101679.19;5053824;28;19924;-75
2023/07/08 10:31:42;;;;;;;;;;;;;;;22.88;50.70;101677.34;5052193;28;19921;-74
2023/07/08 10:34:17;;;;;;;;;;;;;;;22.89;50.83;101672.75;5052957;28;19917;-74
2023/07/08 10:36:44;;;;;;;;;;;;;;;22.89;50.69;101670.03;5054188;28;19973;-74
2023/07/08 10:39:17;;;;;;;;;;;;;;;22.90;50.81;101674.50;5050898;28;19921;-75
2023/07/08 10:42:00;;;;;;;;;;;;;;;22.90;50.77;101669.91;5086414;28;19916;-74
2023/07/08 10:44:37;;;;;;;;;;;;;;;22.90;50.93;101672.63;5054516;28;19924;-74
2023/07/08 10:47:10;;;;;;;;;;;;;;;22.90;50.80;101669.91;5049748;28;19928;-74
2023/07/08 10:49:49;;;;;;;;;;;;;;;22.91;50.67;101665.34;5053583;28;19931;-74
2023/07/08 10:52:33;;;;;;;;;;;;;;;22.92;51.19;101664.31;5052745;28;20007;-73
2023/07/08 10:55:01;;;;;;;;;;;;;;;22.92;51.11;101673.28;5052570;28;19913;-74
2023/07/08 10:57:35;;;;;;;;;;;;;;;22.93;50.76;101669.53;5054667;28;19988;-73
2023/07/08 11:00:00;;;;;;;;;;;;;;;22.94;50.98;101673.13;5054779;28;19914;-74
2023/07/08 11:02:31;;;;;;;;;;;;;;;22.94;51.10;101670.41;5051319;28;19921;-74
2023/07/08 11:05:06;;;;;;;;;;;;;;;22.95;50.95;101677.50;5052869;28;19920;-74
2023/07/08 11:07:39;;;;;;;;;;;;;;;22.95;50.89;101680.22;5048709;28;19920;-74
2023/07/08 11:10:06;;;;;;;;;;;;;;;22.95;50.90;101670.22;5048726;28;19924;-74
2023/07/08 11:12:36;;;;;;;;;;;;;;;22.97;50.92;101674.63;5050856;28;19913;-72
2023/07/08 11:15:22;;;;;;;;;;;;;;;22.98;50.82;101671.75;5050862;28;19913;-73
2023/07/08 11:17:49;;;;;;;;;;;;;;;22.99;51.08;101675.31;5052480;28;20294;-73
2023/07/08 11:20:14;;;;;;;;;;;;;;;22.99;50.57;101672.59;5050970;28;19921;-75
2023/07/08 11:22:55;;;;;;;;;;;;;;;22.98;50.88;101665.44;5057678;28;19912;-75
2023/07/08 11:25:21;;;;;;;;;;;;;;;22.98;50.70;101655.47;5050621;28;20267;-77
2023/07/08 11:27:46;;;;;;;;;;;;;;;22.98;50.77;101655.47;5052033;28;19921;-74
2023/07/08 11:30:11;;;;;;;;;;;;;;;22.98;50.71;101647.34;5083864;28;19920;-73
2023/07/08 11:32:37;;;;;;;;;;;;;;;23.00;50.62;101645.28;5053216;28;19952;-72
2023/07/08 11:35:03;;;;;;;;;;;;;;;23.00;50.87;101639.84;5065749;28;19989;-73
2023/07/08 11:37:28;;;;;;;;;;;;;;;23.01;50.89;101646.13;5051452;28;19913;-72
2023/07/08 11:39:59;;;;;;;;;;;;;;;23.01;51.01;101651.53;5050497;28;19917;-74
2023/07/08 11:42:35;;;;;;;;;;;;;;;23.03;51.01;101654.94;5048044;28;19917;-73
2023/07/08 11:45:00;;;;;;;;;;;;;;;23.03;51.22;101661.22;5083391;28;19917;-72
2023/07/08 11:47:32;;;;;;;;;;;;;;;23.03;51.23;101655.78;5081937;28;19975;-76
2023/07/08 11:49:57;;;;;;;;;;;;;;;23.03;51.85;101653.06;5054199;28;20017;-75
2023/07/08 11:52:22;;;;;;;;;;;;;;;23.05;51.93;101645.59;5051741;28;20293;-75
2023/07/08 11:54:49;;;;;;;;;;;;;;;23.06;52.00;101641.84;5068589;28;19924;-75
2023/07/08 11:57:19;;;;;;;;;;;;;;;23.07;52.03;101638.13;5047801;28;19916;-76
2023/07/08 11:59:45;;;;;;;;;;;;;;;23.08;52.01;101631.69;5067494;28;19921;-71
2023/07/08 12:02:14;;;;;;;;;;;;;;;23.09;51.88;101630.66;5083664;28;19971;-71
2023/07/08 12:04:59;;;;;;;;;;;;;;;23.10;52.05;101635.03;5084237;28;19971;-72
2023/07/08 12:07:31;;;;;;;;;;;;;;;23.10;51.80;101624.19;5045151;28;19920;-71
2023/07/08 12:09:59;;;;;;;;;;;;;;;23.12;52.10;101629.44;5050799;28;19928;-72
2023/07/08 12:12:26;;;;;;;;;;;;;;;23.11;52.02;101634.03;5080348;28;19952;-71
2023/07/08 12:14:59;;;;;;;;;;;;;;;23.13;52.34;101631.13;5082010;28;19917;-71
2023/07/08 12:17:24;;;;;;;;;;;;;;;23.13;52.16;101629.25;5048400;28;19960;-71
2023/07/08 12:19:49;;;;;;;;;;;;;;;23.14;52.21;101632.81;5049764;28;19936;-72
2023/07/08 12:22:18;;;;;;;;;;;;;;;23.15;52.16;101637.22;5083770;28;20406;-71
2023/07/08 12:24:43;;;;;;;;;;;;;;;23.15;52.11;101635.38;5050683;28;19913;-71
2023/07/08 12:27:09;;;;;;;;;;;;;;;23.17;52.42;101633.31;5083244;28;19948;-71
2023/07/08 12:29:35;;;;;;;;;;;;;;;23.16;52.13;101628.91;5047600;28;19917;-71
2023/07/08 12:32:00;;;;;;;;;;;;;;;23.17;52.04;101633.31;5080324;28;20062;-71